createdAt,value
2023-04-23T00:01:54.257Z,99607.25
2023-04-23T00:04:23.144Z,99609.59
2023-04-23T00:06:51.453Z,99604.38
2023-04-23T00:09:19.826Z,99611.44
2023-04-23T00:11:47.975Z,99614.66
2023-04-23T00:14:15.004Z,99612.06
2023-04-23T00:16:44.657Z,99617.16
2023-04-23T00:19:12.483Z,99605.81
2023-04-23T00:21:39.387Z,99604.44
2023-04-23T00:24:06.585Z,99606.91
2023-04-23T00:26:33.390Z,99610.75
2023-04-23T00:29:00.240Z,99600.78
2023-04-23T00:31:27.395Z,99600.44
2023-04-23T00:33:54.906Z,99592.06
2023-04-23T00:36:21.750Z,99596.06
2023-04-23T00:38:49.938Z,99605.13
2023-04-23T00:41:19.495Z,99595.75
2023-04-23T00:43:47.085Z,99588.63
2023-04-23T00:46:14.194Z,99594.22
2023-04-23T00:48:41.967Z,99593.88
2023-04-23T00:51:11.405Z,99597.03
2023-04-23T00:53:38.293Z,99587.09
2023-04-23T00:56:06.613Z,99586.78
2023-04-23T00:58:36.785Z,99593.66
2023-04-23T01:01:04.878Z,99591.25
2023-04-23T01:03:36.383Z,99588.09
2023-04-23T01:06:04.323Z,99587.31
2023-04-23T01:08:34.079Z,99590.34
2023-04-23T01:11:03.352Z,99596.75
2023-04-23T01:13:30.791Z,99593.00
2023-04-23T01:15:57.691Z,99594.22
2023-04-23T01:18:24.757Z,99586.25
2023-04-23T01:20:51.968Z,99602.31
2023-04-23T01:23:19.221Z,99591.56
2023-04-23T01:25:47.126Z,99589.16
2023-04-23T01:28:14.392Z,99588.16
2023-04-23T01:30:44.421Z,99584.38
2023-04-23T01:33:11.867Z,99594.41
2023-04-23T01:35:40.888Z,99590.69
2023-04-23T01:38:11.202Z,99587.06
2023-04-23T01:40:38.559Z,99590.28
2023-04-23T01:43:06.890Z,99589.72
2023-04-23T01:45:34.248Z,99587.75
2023-04-23T01:48:02.112Z,99587.38
2023-04-23T01:50:30.191Z,99591.41
2023-04-23T01:52:57.375Z,99593.00
2023-04-23T01:55:24.709Z,99593.22
2023-04-23T01:57:52.393Z,99585.03
2023-04-23T02:00:21.275Z,99583.91
2023-04-23T02:02:48.429Z,99584.53
2023-04-23T02:05:18.879Z,99583.91
2023-04-23T02:07:52.123Z,99587.63
2023-04-23T02:10:21.122Z,99583.44
2023-04-23T02:12:48.978Z,99580.22
2023-04-23T02:15:16.634Z,99576.03
2023-04-23T02:17:43.768Z,99576.03
2023-04-23T02:20:12.348Z,99575.31
2023-04-23T02:22:42.090Z,99580.69
2023-04-23T02:25:10.171Z,99580.53
2023-04-23T02:27:37.190Z,99583.78
2023-04-23T02:30:04.998Z,99584.34
2023-04-23T02:32:32.799Z,99574.19
2023-04-23T02:35:02.414Z,99577.22
2023-04-23T02:37:33.701Z,99575.22
2023-04-23T02:40:00.693Z,99572.28
2023-04-23T02:42:31.800Z,99573.50
2023-04-23T02:44:59.301Z,99568.50
2023-04-23T02:47:26.251Z,99568.31
2023-04-23T02:49:53.902Z,99571.09
2023-04-23T02:52:21.396Z,99567.31
2023-04-23T02:54:48.408Z,99578.16
2023-04-23T02:57:16.608Z,99575.59
2023-04-23T02:59:44.194Z,99581.22
2023-04-23T03:02:12.990Z,99572.44
2023-04-23T03:04:40.590Z,99584.81
2023-04-23T03:07:07.879Z,99584.06
2023-04-23T03:09:35.709Z,99586.44
2023-04-23T03:12:02.559Z,99585.63
2023-04-23T03:14:30.087Z,99573.09
2023-04-23T03:17:00.560Z,99574.91
2023-04-23T03:19:29.877Z,99568.94
2023-04-23T03:21:57.797Z,99551.34
2023-04-23T03:24:24.729Z,99570.50
2023-04-23T03:26:51.645Z,99568.50
2023-04-23T03:29:18.480Z,99572.09
2023-04-23T03:31:45.877Z,99568.94
2023-04-23T03:34:12.764Z,99570.94
2023-04-23T03:36:39.631Z,99578.72
2023-04-23T03:39:07.884Z,99572.09
2023-04-23T03:41:47.215Z,99573.75
2023-04-23T03:44:17.235Z,99581.31
2023-04-23T03:46:46.150Z,99573.94
2023-04-23T03:49:15.844Z,99573.34
2023-04-23T03:51:42.980Z,99576.75
2023-04-23T03:54:10.563Z,99569.75
2023-04-23T03:56:42.748Z,99580.53
2023-04-23T03:59:18.889Z,99585.50
2023-04-23T04:01:49.577Z,99578.72
2023-04-23T04:04:18.654Z,99580.72
2023-04-23T04:06:46.062Z,99573.34
2023-04-23T04:09:14.170Z,99581.13
2023-04-23T04:11:41.361Z,99574.53
2023-04-23T04:14:11.119Z,99581.47
2023-04-23T04:16:38.301Z,99578.13
2023-04-23T04:19:05.841Z,99579.34
2023-04-23T04:21:34.121Z,99585.31
2023-04-23T04:24:04.448Z,99582.31
2023-04-23T04:26:32.769Z,99585.06
2023-04-23T04:29:01.849Z,99580.88
2023-04-23T04:31:29.384Z,99586.06
2023-04-23T04:33:57.248Z,99590.88
2023-04-23T04:36:25.376Z,99588.44
2023-04-23T04:38:56.126Z,99589.03
2023-04-23T04:41:25.769Z,99596.81
2023-04-23T04:43:54.758Z,99593.00
2023-04-23T04:46:22.121Z,99596.97
2023-04-23T04:48:49.433Z,99596.38
2023-04-23T04:51:17.276Z,99594.94
2023-04-23T04:53:45.568Z,99597.72
2023-04-23T04:56:12.789Z,99600.00
2023-04-23T04:58:39.812Z,99602.44
2023-04-23T05:01:07.308Z,99597.13
2023-04-23T05:03:34.344Z,99599.59
2023-04-23T05:06:01.365Z,99603.19
2023-04-23T05:08:28.342Z,99604.75
2023-04-23T05:10:55.288Z,99602.28
2023-04-23T05:13:22.129Z,99610.72
2023-04-23T05:15:49.136Z,99607.94
2023-04-23T05:18:16.114Z,99613.13
2023-04-23T05:20:43.181Z,99604.03
2023-04-23T05:23:10.314Z,99606.31
2023-04-23T05:25:37.166Z,99623.75
2023-04-23T05:28:04.410Z,99612.66
2023-04-23T05:30:32.234Z,99613.47
2023-04-23T05:32:59.258Z,99613.63
2023-04-23T05:35:26.244Z,99614.09
2023-04-23T05:37:53.208Z,99614.28
2023-04-23T05:40:21.173Z,99616.00
2023-04-23T05:42:49.099Z,99612.53
2023-04-23T05:45:18.291Z,99615.59
2023-04-23T05:47:46.152Z,99623.31
2023-04-23T05:50:13.562Z,99615.00
2023-04-23T05:52:40.586Z,99626.28
2023-04-23T05:55:09.838Z,99620.91
2023-04-23T05:57:38.220Z,99615.13
2023-04-23T06:00:09.510Z,99618.47
2023-04-23T06:02:43.801Z,99622.69
2023-04-23T06:05:11.348Z,99625.50
2023-04-23T06:07:40.880Z,99629.59
2023-04-23T06:10:17.689Z,99630.00
2023-04-23T06:12:49.518Z,99631.06
2023-04-23T06:15:16.378Z,99641.13
2023-04-23T06:17:43.293Z,99631.19
2023-04-23T06:20:12.175Z,99640.25
2023-04-23T06:22:39.283Z,99633.34
2023-04-23T06:25:06.936Z,99636.75
2023-04-23T06:27:34.170Z,99644.34
2023-04-23T06:30:09.060Z,99631.22
2023-04-23T06:32:36.422Z,99640.25
2023-04-23T06:35:06.962Z,99634.06
2023-04-23T06:37:34.061Z,99633.00
2023-04-23T06:40:01.719Z,99630.88
2023-04-23T06:42:30.916Z,99634.50
2023-04-23T06:45:18.546Z,99631.25
2023-04-23T06:47:45.700Z,99632.34
2023-04-23T06:50:12.916Z,99628.75
2023-04-23T06:52:43.069Z,99633.09
2023-04-23T06:55:10.337Z,99632.31
2023-04-23T06:57:37.154Z,99631.41
2023-04-23T07:00:06.750Z,99630.63
2023-04-23T07:02:37.932Z,99626.88
2023-04-23T07:05:05.656Z,99625.16
2023-04-23T07:07:32.691Z,99629.66
2023-04-23T07:09:59.532Z,99630.91
2023-04-23T07:12:26.513Z,99624.63
2023-04-23T07:14:54.474Z,99624.97
2023-04-23T07:17:21.836Z,99624.81
2023-04-23T07:19:49.584Z,99622.09
2023-04-23T07:22:16.709Z,99627.44
2023-04-23T07:24:43.871Z,99616.75
2023-04-23T07:27:11.088Z,99627.09
2023-04-23T07:29:38.174Z,99620.66
2023-04-23T07:32:06.166Z,99620.09
2023-04-23T07:34:33.342Z,99618.72
2023-04-23T07:37:01.049Z,99623.09
2023-04-23T07:39:27.932Z,99615.44
2023-04-23T07:41:55.491Z,99629.59
2023-04-23T07:44:22.773Z,99624.22
2023-04-23T07:46:49.563Z,99619.72
2023-04-23T07:49:16.459Z,99615.31
2023-04-23T07:51:43.475Z,99615.31
2023-04-23T07:54:11.638Z,99611.72
2023-04-23T07:56:38.501Z,99610.59
2023-04-23T07:59:06.225Z,99616.50
2023-04-23T08:01:34.152Z,99614.88
2023-04-23T08:04:01.325Z,99620.84
2023-04-23T08:06:31.339Z,99618.28
2023-04-23T08:08:58.515Z,99617.88
2023-04-23T08:11:25.385Z,99617.19
2023-04-23T08:13:52.159Z,99610.09
2023-04-23T08:16:20.156Z,99605.69
2023-04-23T08:19:03.675Z,99605.25
2023-04-23T08:21:33.889Z,99599.19
2023-04-23T08:24:03.235Z,99597.78
2023-04-23T08:26:30.920Z,99600.38
2023-04-23T08:28:57.928Z,99593.34
2023-04-23T08:31:26.983Z,99598.88
2023-04-23T08:33:54.712Z,99591.34
2023-04-23T08:36:25.608Z,99590.19
2023-04-23T08:38:52.404Z,99589.94
2023-04-23T08:41:22.865Z,99591.88
2023-04-23T08:44:01.420Z,99590.31
2023-04-23T08:46:34.830Z,99585.50
2023-04-23T08:49:03.024Z,99580.91
2023-04-23T08:51:33.655Z,99581.44
2023-04-23T08:54:03.473Z,99586.06
2023-04-23T08:56:31.725Z,99590.84
2023-04-23T08:58:59.851Z,99582.19
2023-04-23T09:01:26.815Z,99584.56
2023-04-23T09:03:54.569Z,99576.50
2023-04-23T09:06:21.772Z,99571.66
2023-04-23T09:08:49.038Z,99574.16
2023-04-23T09:11:17.241Z,99559.22
2023-04-23T09:13:44.246Z,99558.47
2023-04-23T09:16:11.425Z,99554.16
2023-04-23T09:18:38.875Z,99548.88
2023-04-23T09:21:07.087Z,99556.19
2023-04-23T09:23:34.770Z,99545.75
2023-04-23T09:26:05.876Z,99544.16
2023-04-23T09:28:38.981Z,99536.09
2023-04-23T09:31:06.534Z,99539.94
2023-04-23T09:33:37.170Z,99529.78
2023-04-23T09:36:14.211Z,99539.25
2023-04-23T09:38:43.963Z,99539.66
2023-04-23T09:41:25.210Z,99524.94
2023-04-23T09:43:54.854Z,99526.59
2023-04-23T09:46:38.103Z,99528.19
2023-04-23T09:49:08.918Z,99528.41
2023-04-23T09:51:40.721Z,99518.13
2023-04-23T09:54:22.795Z,99518.72
2023-04-23T09:56:57.048Z,99516.00
2023-04-23T09:59:45.797Z,99511.16
2023-04-23T10:02:13.863Z,99516.00
2023-04-23T10:04:42.198Z,99507.97
2023-04-23T10:09:46.468Z,99503.91
2023-04-23T10:14:46.126Z,99497.88
2023-04-23T10:17:15.737Z,99501.03
2023-04-23T10:19:44.561Z,99502.69
2023-04-23T10:24:47.921Z,99491.66
2023-04-23T10:29:52.678Z,99484.44
2023-04-23T10:32:23.847Z,99494.25
2023-04-23T10:34:52.178Z,99478.78
2023-04-23T10:37:20.956Z,99487.50
2023-04-23T10:39:53.896Z,99479.25
2023-04-23T10:42:22.004Z,99481.78
2023-04-23T10:44:59.555Z,99471.81
2023-04-23T10:47:32.912Z,99472.84
2023-04-23T10:50:38.061Z,99474.75
2023-04-23T10:53:22.505Z,99466.00
2023-04-23T10:55:50.527Z,99475.53
2023-04-23T10:58:17.407Z,99461.28
2023-04-23T11:00:48.410Z,99462.63
2023-04-23T11:03:44.385Z,99468.41
2023-04-23T11:06:20.318Z,99465.06
2023-04-23T11:08:56.978Z,99470.84
2023-04-23T11:11:40.420Z,99473.16
2023-04-23T11:14:17.012Z,99472.00
2023-04-23T11:16:44.450Z,99469.34
2023-04-23T11:19:12.859Z,99460.09
2023-04-23T11:22:20.688Z,99456.72
2023-04-23T11:24:49.632Z,99454.00
2023-04-23T11:27:19.285Z,99466.81
2023-04-23T11:29:47.225Z,99457.38
2023-04-23T11:32:17.642Z,99454.59
2023-04-23T11:34:47.245Z,99449.06
2023-04-23T11:37:20.006Z,99455.19
2023-04-23T11:39:52.027Z,99437.50
2023-04-23T11:42:23.220Z,99443.16
2023-04-23T11:44:50.292Z,99442.56
2023-04-23T11:47:18.811Z,99429.91
2023-04-23T11:49:47.110Z,99429.59
2023-04-23T11:52:15.554Z,99439.00
2023-04-23T11:54:42.773Z,99437.34
2023-04-23T11:57:10.682Z,99443.22
2023-04-23T11:59:37.940Z,99423.69
2023-04-23T12:02:10.049Z,99436.97
2023-04-23T12:04:41.040Z,99430.47
2023-04-23T12:07:19.395Z,99435.31
2023-04-23T12:09:55.142Z,99434.44
2023-04-23T12:12:22.850Z,99430.53
2023-04-23T12:14:52.319Z,99430.88
2023-04-23T12:17:20.596Z,99419.63
2023-04-23T12:19:47.999Z,99427.41
2023-04-23T12:22:15.344Z,99422.31
2023-04-23T12:24:54.569Z,99424.25
2023-04-23T12:27:26.664Z,99422.38
2023-04-23T12:30:07.448Z,99421.47
2023-04-23T12:32:40.024Z,99422.59
2023-04-23T12:35:11.177Z,99411.13
2023-04-23T12:37:39.285Z,99411.50
2023-04-23T12:40:07.490Z,99421.16
2023-04-23T12:42:35.543Z,99417.53
2023-04-23T12:45:10.138Z,99402.56
2023-04-23T12:47:37.113Z,99409.34
2023-04-23T12:50:05.825Z,99414.75
2023-04-23T12:52:32.854Z,99409.50
2023-04-23T12:55:01.477Z,99397.88
2023-04-23T12:57:30.207Z,99391.31
2023-04-23T12:59:57.000Z,99402.09
2023-04-23T13:02:24.868Z,99389.59
2023-04-23T13:04:52.082Z,99398.59
2023-04-23T13:07:19.223Z,99384.19
2023-04-23T13:09:46.023Z,99383.22
2023-04-23T13:12:12.810Z,99389.19
2023-04-23T13:14:39.874Z,99379.44
2023-04-23T13:17:10.071Z,99386.69
2023-04-23T13:19:39.877Z,99377.28
2023-04-23T13:22:07.217Z,99374.75
2023-04-23T13:24:34.179Z,99372.03
2023-04-23T13:27:01.885Z,99366.53
2023-04-23T13:29:28.993Z,99357.38
2023-04-23T13:31:57.001Z,99365.50
2023-04-23T13:34:24.034Z,99356.34
2023-04-23T13:36:50.965Z,99355.00
2023-04-23T13:39:21.449Z,99354.38
2023-04-23T13:41:59.263Z,99346.63
2023-04-23T13:44:29.563Z,99339.03
2023-04-23T13:46:59.827Z,99354.50
2023-04-23T13:49:27.468Z,99344.38
2023-04-23T13:51:59.016Z,99341.13
2023-04-23T13:54:29.489Z,99334.28
2023-04-23T13:56:57.049Z,99332.69
2023-04-23T13:59:25.535Z,99334.72
2023-04-23T14:01:52.366Z,99334.09
2023-04-23T14:04:21.082Z,99336.19
2023-04-23T14:06:47.927Z,99325.59
2023-04-23T14:09:14.783Z,99324.19
2023-04-23T14:11:41.967Z,99323.75
2023-04-23T14:14:08.928Z,99316.44
2023-04-23T14:16:35.893Z,99309.28
2023-04-23T14:19:02.747Z,99312.25
2023-04-23T14:21:29.673Z,99305.50
2023-04-23T14:24:16.784Z,99315.78
2023-04-23T14:26:49.511Z,99308.94
2023-04-23T14:29:27.252Z,99307.38
2023-04-23T14:31:54.186Z,99306.75
2023-04-23T14:34:22.922Z,99300.81
2023-04-23T14:36:49.800Z,99291.81
2023-04-23T14:39:17.074Z,99295.69
2023-04-23T14:41:44.024Z,99297.28
2023-04-23T14:44:12.441Z,99287.47
2023-04-23T14:46:40.496Z,99289.81
2023-04-23T14:49:07.367Z,99281.88
2023-04-23T14:51:34.420Z,99275.75
2023-04-23T14:54:01.473Z,99280.38
2023-04-23T14:56:28.445Z,99282.50
2023-04-23T14:58:55.232Z,99275.78
2023-04-23T15:01:22.223Z,99276.00
2023-04-23T15:03:49.298Z,99279.69
2023-04-23T15:06:17.924Z,99266.09
2023-04-23T15:08:44.765Z,99269.66
2023-04-23T15:11:15.668Z,99278.03
2023-04-23T15:14:06.629Z,99264.34
2023-04-23T15:19:15.262Z,99267.34
2023-04-23T15:21:43.273Z,99251.75
2023-04-23T15:24:10.414Z,99266.34
2023-04-23T15:26:37.742Z,99263.81
2023-04-23T15:29:08.909Z,99258.06
2023-04-23T15:31:36.708Z,99262.56
2023-04-23T15:34:06.158Z,99255.97
2023-04-23T15:36:34.807Z,99254.53
2023-04-23T15:39:01.873Z,99248.28
2023-04-23T15:41:29.464Z,99252.59
2023-04-23T15:43:56.760Z,99248.88
2023-04-23T15:46:28.073Z,99249.56
2023-04-23T15:48:54.876Z,99248.00
2023-04-23T15:51:21.760Z,99239.13
2023-04-23T15:53:48.555Z,99254.50
2023-04-23T15:56:15.309Z,99247.63
2023-04-23T15:58:42.154Z,99244.50
2023-04-23T16:01:09.893Z,99244.00
2023-04-23T16:03:37.145Z,99243.53
2023-04-23T16:06:05.168Z,99240.41
2023-04-23T16:08:32.753Z,99236.22
2023-04-23T16:10:59.731Z,99236.91
2023-04-23T16:13:29.010Z,99234.34
2023-04-23T16:15:56.060Z,99225.44
2023-04-23T16:18:23.003Z,99232.41
2023-04-23T16:20:49.837Z,99229.25
2023-04-23T16:23:16.725Z,99227.19
2023-04-23T16:25:44.296Z,99227.34
2023-04-23T16:28:13.908Z,99225.25
2023-04-23T16:30:41.128Z,99225.34
2023-04-23T16:33:09.569Z,99225.19
2023-04-23T16:35:36.811Z,99219.50
2023-04-23T16:38:03.736Z,99218.22
2023-04-23T16:40:34.473Z,99216.75
2023-04-23T16:43:02.944Z,99211.03
2023-04-23T16:45:29.850Z,99211.63
2023-04-23T16:47:56.688Z,99207.53
2023-04-23T16:50:23.530Z,99209.47
2023-04-23T16:52:50.545Z,99203.53
2023-04-23T16:55:17.434Z,99203.59
2023-04-23T16:57:44.940Z,99208.94
2023-04-23T17:00:13.938Z,99205.31
2023-04-23T17:02:42.907Z,99206.50
2023-04-23T17:05:10.548Z,99197.84
2023-04-23T17:07:37.684Z,99205.56
2023-04-23T17:10:04.774Z,99195.41
2023-04-23T17:12:31.828Z,99200.44
2023-04-23T17:14:58.973Z,99190.78
2023-04-23T17:17:26.138Z,99197.97
2023-04-23T17:19:52.972Z,99194.41
2023-04-23T17:22:19.757Z,99189.50
2023-04-23T17:24:46.683Z,99195.91
2023-04-23T17:27:13.635Z,99188.63
2023-04-23T17:29:41.105Z,99196.63
2023-04-23T17:32:08.157Z,99199.88
2023-04-23T17:34:36.302Z,99192.81
2023-04-23T17:37:03.128Z,99190.28
2023-04-23T17:39:30.133Z,99192.94
2023-04-23T17:41:58.174Z,99191.19
2023-04-23T17:44:25.827Z,99184.91
2023-04-23T17:46:54.685Z,99180.75
2023-04-23T17:49:23.328Z,99185.31
2023-04-23T17:51:50.372Z,99188.00
2023-04-23T17:54:17.890Z,99186.22
2023-04-23T17:56:45.816Z,99185.47
2023-04-23T17:59:13.007Z,99186.03
2023-04-23T18:01:39.999Z,99194.75
2023-04-23T18:04:09.117Z,99193.75
2023-04-23T18:06:37.136Z,99187.25
2023-04-23T18:09:05.020Z,99187.88
2023-04-23T18:11:33.447Z,99192.88
2023-04-23T18:14:00.653Z,99191.41
2023-04-23T18:16:27.570Z,99194.31
2023-04-23T18:18:54.545Z,99199.38
2023-04-23T18:21:22.735Z,99193.66
2023-04-23T18:23:49.647Z,99200.03
2023-04-23T18:26:17.863Z,99193.50
2023-04-23T18:28:44.698Z,99202.44
2023-04-23T18:31:11.992Z,99193.72
2023-04-23T18:33:49.230Z,99195.34
2023-04-23T18:36:30.013Z,99200.66
2023-04-23T18:38:57.333Z,99199.56
2023-04-23T18:41:24.274Z,99209.28
2023-04-23T18:43:51.527Z,99208.28
2023-04-23T18:46:18.793Z,99206.19
2023-04-23T18:48:57.285Z,99213.06
2023-04-23T18:51:46.073Z,99209.69
2023-04-23T18:54:17.829Z,99213.06
2023-04-23T18:56:45.531Z,99214.09
2023-04-23T18:59:13.118Z,99219.63
2023-04-23T19:01:44.636Z,99216.22
2023-04-23T19:04:12.058Z,99212.59
2023-04-23T19:06:39.005Z,99218.41
2023-04-23T19:09:06.506Z,99216.84
2023-04-23T19:11:45.294Z,99210.03
2023-04-23T19:14:22.981Z,99211.91
2023-04-23T19:16:53.208Z,99216.91
2023-04-23T19:19:24.457Z,99219.03
2023-04-23T19:21:51.401Z,99211.94
2023-04-23T19:24:18.328Z,99206.16
2023-04-23T19:26:47.125Z,99205.91
2023-04-23T19:29:13.985Z,99196.75
2023-04-23T19:31:41.299Z,99202.25
2023-04-23T19:34:13.390Z,99206.22
2023-04-23T19:36:42.241Z,99204.41
2023-04-23T19:39:15.520Z,99201.81
2023-04-23T19:42:09.751Z,99197.38
2023-04-23T19:44:44.197Z,99194.53
2023-04-23T19:47:20.060Z,99188.97
2023-04-23T19:49:47.197Z,99188.22
2023-04-23T19:52:19.625Z,99197.69
2023-04-23T19:54:49.204Z,99195.59
2023-04-23T19:57:19.865Z,99194.06
2023-04-23T19:59:51.549Z,99194.84
2023-04-23T20:02:21.715Z,99196.44
2023-04-23T20:04:48.735Z,99194.03
2023-04-23T20:07:18.044Z,99196.13
2023-04-23T20:09:46.056Z,99191.16
2023-04-23T20:12:22.570Z,99184.84
2023-04-23T20:14:57.411Z,99192.41
2023-04-23T20:17:35.453Z,99194.78
2023-04-23T20:20:42.742Z,99201.84
2023-04-23T20:23:20.374Z,99193.97
2023-04-23T20:25:52.358Z,99193.19
2023-04-23T20:28:20.505Z,99197.94
2023-04-23T20:30:50.489Z,99198.72
2023-04-23T20:33:25.079Z,99186.69
2023-04-23T20:36:17.346Z,99195.59
2023-04-23T20:38:54.816Z,99202.44
2023-04-23T20:41:25.083Z,99199.81
2023-04-23T20:44:12.028Z,99207.19
2023-04-23T20:46:43.297Z,99200.72
2023-04-23T20:49:14.136Z,99207.72
2023-04-23T20:51:45.924Z,99204.06
2023-04-23T20:54:12.968Z,99191.22
2023-04-23T20:56:47.251Z,99203.28
2023-04-23T20:59:26.313Z,99203.28
2023-04-23T21:01:57.915Z,99202.50
2023-04-23T21:04:31.741Z,99208.81
2023-04-23T21:07:03.757Z,99210.91
2023-04-23T21:09:30.763Z,99206.22
2023-04-23T21:12:01.193Z,99204.91
2023-04-23T21:14:34.206Z,99205.69
2023-04-23T21:17:01.277Z,99224.28
2023-04-23T21:19:30.323Z,99224.84
2023-04-23T21:21:57.194Z,99227.19
2023-04-23T21:24:27.102Z,99227.44
2023-04-23T21:26:59.499Z,99220.34
2023-04-23T21:29:26.545Z,99234.22
2023-04-23T21:31:54.581Z,99231.28
2023-04-23T21:34:22.292Z,99218.66
2023-04-23T21:36:49.610Z,99212.28
2023-04-23T21:39:18.998Z,99213.53
2023-04-23T21:41:46.850Z,99204.78
2023-04-23T21:44:13.855Z,99202.63
2023-04-23T21:46:43.416Z,99204.84
2023-04-23T21:49:13.186Z,99195.88
2023-04-23T21:51:41.255Z,99200.00
2023-04-23T21:54:10.596Z,99195.81
2023-04-23T21:57:17.508Z,99189.63
2023-04-23T21:59:45.295Z,99180.72
2023-04-23T22:02:19.869Z,99179.66
2023-04-23T22:04:49.198Z,99184.63
2023-04-23T22:07:16.151Z,99185.47
2023-04-23T22:09:43.367Z,99182.78
2023-04-23T22:12:11.872Z,99164.34
2023-04-23T22:14:38.823Z,99160.88
2023-04-23T22:17:07.599Z,99157.44
2023-04-23T22:19:35.808Z,99150.66
2023-04-23T22:22:07.647Z,99145.97
2023-04-23T22:24:41.876Z,99136.78
2023-04-23T22:27:14.383Z,99136.22
2023-04-23T22:29:45.696Z,99135.44
2023-04-23T22:32:15.441Z,99132.28
2023-04-23T22:34:47.410Z,99126.81
2023-04-23T22:37:15.079Z,99123.97
2023-04-23T22:39:42.620Z,99118.75
2023-04-23T22:42:09.968Z,99122.88
2023-04-23T22:44:37.948Z,99121.56
2023-04-23T22:47:05.724Z,99112.72
2023-04-23T22:49:35.167Z,99118.72
2023-04-23T22:52:02.550Z,99113.53
2023-04-23T22:54:29.709Z,99096.78
2023-04-23T22:56:56.606Z,99101.22
2023-04-23T22:59:24.633Z,99090.00
2023-04-23T23:01:51.884Z,99096.28
2023-04-23T23:04:18.917Z,99099.34
2023-04-23T23:06:46.433Z,99084.75
2023-04-23T23:09:13.207Z,99078.94
2023-04-23T23:11:40.162Z,99075.31
2023-04-23T23:14:07.096Z,99070.38
2023-04-23T23:16:33.963Z,99065.97
2023-04-23T23:19:00.790Z,99057.28
2023-04-23T23:21:27.684Z,99064.88
2023-04-23T23:23:54.492Z,99065.97
2023-04-23T23:26:21.537Z,99056.03
2023-04-23T23:28:48.395Z,99058.84
2023-04-23T23:31:15.272Z,99063.09
2023-04-23T23:33:42.158Z,99049.22
2023-04-23T23:36:09.021Z,99049.22
2023-04-23T23:38:35.755Z,99049.22
2023-04-23T23:41:02.622Z,99049.22
2023-04-23T23:43:29.818Z,99047.63
2023-04-23T23:45:56.716Z,99043.97
2023-04-23T23:48:23.619Z,99037.09
2023-04-23T23:50:50.500Z,99033.94
2023-04-23T23:53:17.319Z,99032.91
2023-04-23T23:55:44.253Z,99026.19
2023-04-23T23:58:11.230Z,99033.00
